Thursday, November 23, 2017, 7:29 AM GMT
Back to Local

CYVO, Val D'Or, Que.

Location: , , Canada Lat: 48.067
Local Time: 7:29 AM GMT ( 7:29 GMT) Lon: -77.783
Time Zone: GMT Elev: 1105 ft

Show me the last for .
Show Decoded

2017-11-23 07:00 METAR CYVO 230700Z AUTO 21008KT 9SM OVC037 M12/M13 A2997 RMK SLP179 =
2017-11-23 06:00 METAR CYVO 230600Z AUTO 20005KT 9SM BKN140 M13/M14 A2998 RMK SLP185 =
2017-11-23 05:00 METAR CYVO 230500Z AUTO 21007KT 9SM CLR M13/M14 A3001 RMK SLP195 =
2017-11-23 04:00 METAR CYVO 230400Z AUTO 21006KT 9SM CLR M12/M13 A3002 RMK SLP197 =
2017-11-23 03:00 METAR CYVO 230300Z 20004KT 15SM BKN048 M12/M13 A3005 RMK SC6 LAST STFD OBS/NEXT
                 231100 UTC SLP207 =
2017-11-23 02:00 METAR CYVO 230200Z 25003KT 15SM SCT050 M14/M14 A3007 RMK SC3 SLP215 =
2017-11-23 01:00 METAR CYVO 230100Z 24004KT 15SM SCT049 M13/M14 A3007 RMK SC3 SLP216 =
2017-11-23 00:00 METAR CYVO 230000Z 25003KT 15SM FEW019 SCT049 M11/M12 A3009 RMK SC2SC1 SLP222 =
2017-11-22 23:00 METAR CYVO 222300Z 26003KT 15SM -SHSN SCT019 BKN260 M10/M11 A3009 RMK SC4CI1
                 CVCTV CLD EMBD SLP221 =
2017-11-22 22:14 METAR CYVO 222214Z 25003KT 15SM -SHSN FEW021 FEW049 SCT260 M10/M11 A3009 RMK
                 SC1SC1CI1 SLP219 =
2017-11-22 22:00 METAR CYVO 222200Z 25003KT 15SM SCT049 SCT260 M09/M11 A3008 RMK SC3CI1 CI TR
                 SLP218 =
2017-11-22 21:00 METAR CYVO 222100Z 28004KT 230V320 10SM -SHSN FEW019 BKN050 M08/M10 A3008 RMK
                 SF2SC5 CVCTV CLD EMBD SLP215 =
2017-11-22 20:00 METAR CYVO 222000Z 30003KT 270V360 6SM -SHSN BKN016 BKN260 M08/M11 A3007 RMK
                 CU5CI1 /S01/ SLP213 =
2017-11-22 19:35 METAR CYVO 221935Z 29004KT 260V320 3SM -SN BKN015 M08/M10 A3007 RMK CU6 VIS S 1
                 SLP214 =
2017-11-22 19:28 METAR CYVO 221928Z 29003KT 250V330 2SM SN BKN015 M08/M10 A3007 RMK CU6 SLP214 =
2017-11-22 19:19 METAR CYVO 221919Z 30003KT 260V330 15SM -SN BKN017 M08/M10 A3007 RMK SN2SC4 VIS
                 S 1 1/2 SLP213 =
2017-11-22 19:00 METAR CYVO 221900Z 32005KT 240V360 3SM -SN SCT009 BKN020 M08/M11 A3007 RMK
                 SN1SF2SC3 VIS VRB 2-4 SLP213 =
2017-11-22 18:52 METAR CYVO 221852Z 29006KT 210V350 4SM -SN BKN021 M08/M10 A3007 RMK SN2SC3
                 SLP213 =
2017-11-22 18:48 METAR CYVO 221848Z 30005KT 220V350 2SM -SN BKN023 M07/M11 A3008 RMK SN3SC3 VIS
                 SW HIER SLP214 =
2017-11-22 18:00 METAR CYVO 221800Z 33006KT 300V360 3SM -SN BKN018 BKN030 M08/M11 A3007 RMK
                 SC5SC2 SLP211 =
2017-11-22 17:11 METAR CYVO 221711Z 32006KT 300V020 2SM -SN BKN020 OVC030 M08/M12 A3006 RMK
                 SC6SC2 SLP208 =
2017-11-22 17:00 METAR CYVO 221700Z 31003KT 6SM -SN BKN020 BKN030 M08/M12 A3006 RMK SN1SC4SC2
                 SLP208 =
2017-11-22 16:37 METAR CYVO 221637Z 30005KT 240V320 6SM -SN BKN016 M08/M12 A3007 RMK SN1SC4
                 SLP212 =
2017-11-22 16:34 METAR CYVO 221634Z 28007KT 240V310 2SM -SN BKN016 M08/M11 A3007 RMK SN1SC4
                 SLP212 =
2017-11-22 16:31 METAR CYVO 221631Z 28007KT 240V320 1 1/2SM R18/5000VP6000FT/U -SN BKN016 M08/M11
                 A3007 RMK SN6SC1 SLP212 =
2017-11-22 16:19 METAR CYVO 221619Z 31007KT 260V330 1SM R18/P6000FT/N -SN VV009 M08/M12 A3008 RMK
                 SN8 SLP214
2017-11-22 16:15 METAR CYVO 221615Z 29007KT 270V330 2 1/2SM -SN BKN019 OVC029 M08/M12 A3008 RMK
                 SF5SC3 SLP213 =
2017-11-22 16:00 METAR CYVO 221600Z 30006KT 240V340 15SM -SN SCT018 OVC028 M08/M11 A3007 RMK
                 SF3SC5 SLP211 =
2017-11-22 15:00 METAR CYVO 221500Z 28003KT 250V340 15SM -SN FEW012 OVC028 M09/M11 A3007 RMK
                 SF1SC7 SLP212 =
2017-11-22 14:00 METAR CYVO 221400Z 28004KT 220V300 8SM -SN OVC024 M09/M11 A3006 RMK SC8 SLP207 =
2017-11-22 13:00 METAR CYVO 221300Z 29003KT 250V310 10SM -SN OVC024 M10/M12 A3004 RMK SC8 SLP199
                 =
2017-11-22 12:00 METAR CYVO 221200Z 30002KT 15SM -SN BKN024 OVC040 M10/M12 A3002 RMK SC7SC1
                 SLP192 =
2017-11-22 11:00 METAR CYVO 221100Z 30005KT 15SM -SN OVC028 M11/M12 A3001 RMK SC8 SLP188 =
2017-11-22 10:51 METAR CYVO 221051Z 30004KT 10SM -SN OVC030 M11/M12 A3001 RMK SC8 SLP188 =
2017-11-22 10:16 METAR CYVO 221016Z AUTO 28002KT 9SM OVC030 M11/M12 A2999 RMK SLP181 =
2017-11-22 10:00 METAR CYVO 221000Z AUTO 27002KT 9SM -SN OVC030 M11/M12 A2998 RMK SLP180 =
2017-11-22 09:18 METAR CYVO 220918Z AUTO 30003KT 9SM -SN SCT017 BKN030 M11/M12 A2997 RMK SLP175 =
2017-11-22 09:00 METAR CYVO 220900Z AUTO 31005KT 9SM -SN OVC017 M11/M12 A2996 RMK SLP172 =
2017-11-22 08:00 METAR CYVO 220800Z AUTO 33013G19KT 270V350 9SM -SN OVC017 M10/M12 A2994 RMK
                 SLP162 =

Support USWX by starting your Amazon purchase here.